Lindenwood, Illinois
Current Conditions -  °F | °C
As of 7:35 PM on Monday 24 Nov 2014 (Local Time) from KRPJ Reporting Station
Light Snow Light Snow  
Wind Chill: -13°   Ceiling: 1700
Heat Index: -4°   Visibility: 7mi
Dew Point: -6°   Wind: 23mph
Humidity: 85%   Direction: 270°W
Pressure: 29.73"   Gusts: 32mph
Location:  42.05°N, 89.03°W
Report Text: KRPJ 250135Z AUTO 27020G28KT 7SM -SN OVC017 M04/M06 A2973 RMK AO2 T10411063
Loading
Personal Weather Stations






























Interactive Weather Map New forecast layout! Learn more

10-Day Weather Forecast

Advertisements
Track Severe Weather on mobile